Time;durP1;ratioP1;P1;durP2;ratioP2;P2;SDS_P1;SDS_P2;PMS_P1;PMS_P2;Temp;Humidity;BMP_temperature;BMP_pressure;BME280_temperature;BME280_humidity;BME280_pressure;Samples;Min_cycle;Max_cycle;Signal;HPM_P1;HPM_P2
2023/03/05 00:01:07;;;;;;;3.40;1.75;;;;;;;;;;5029770;28;20437;-60
2023/03/05 00:03:33;;;;;;;3.38;1.77;;;;;;;;;;5029701;28;20095;-60
2023/03/05 00:05:59;;;;;;;3.75;1.60;;;;;;;;;;5048650;28;20114;-60
2023/03/05 00:08:27;;;;;;;2.88;1.80;;;;;;;;;;5044577;28;20022;-60
2023/03/05 00:11:00;;;;;;;4.18;1.83;;;;;;;;;;5030698;28;20482;-60
2023/03/05 00:13:26;;;;;;;3.75;2.00;;;;;;;;;;5030554;28;20386;-60
2023/03/05 00:15:52;;;;;;;3.42;1.90;;;;;;;;;;5032986;28;20030;-59
2023/03/05 00:18:18;;;;;;;2.97;1.67;;;;;;;;;;5033679;28;20033;-60
2023/03/05 00:20:44;;;;;;;3.50;1.70;;;;;;;;;;5033001;28;20402;-60
2023/03/05 00:23:11;;;;;;;4.65;1.85;;;;;;;;;;5033430;28;20025;-60
2023/03/05 00:25:37;;;;;;;4.15;1.80;;;;;;;;;;5033230;28;20044;-60
2023/03/05 00:28:04;;;;;;;3.03;1.70;;;;;;;;;;5033490;28;20052;-60
2023/03/05 00:30:31;;;;;;;2.92;1.90;;;;;;;;;;5033092;28;20037;-60
2023/03/05 00:32:57;;;;;;;3.13;1.50;;;;;;;;;;5033021;28;20026;-59
2023/03/05 00:35:23;;;;;;;3.63;1.85;;;;;;;;;;5039140;28;20100;-60
2023/03/05 00:37:49;;;;;;;3.92;1.73;;;;;;;;;;5053181;28;20087;-59
2023/03/05 00:40:15;;;;;;;3.85;1.70;;;;;;;;;;5052239;28;20358;-59
2023/03/05 00:42:41;;;;;;;3.00;1.63;;;;;;;;;;5032939;28;20401;-59
2023/03/05 00:45:08;;;;;;;2.60;1.55;;;;;;;;;;5033240;28;20038;-59
2023/03/05 00:47:34;;;;;;;3.45;1.70;;;;;;;;;;5032480;28;20064;-59
2023/03/05 00:50:00;;;;;;;2.80;1.63;;;;;;;;;;5047045;28;20042;-62
2023/03/05 00:52:26;;;;;;;4.05;1.88;;;;;;;;;;5052527;28;20029;-59
2023/03/05 00:54:52;;;;;;;4.68;1.75;;;;;;;;;;5033077;28;20393;-60
2023/03/05 00:57:18;;;;;;;2.63;1.63;;;;;;;;;;5032725;28;20517;-60
2023/03/05 00:59:44;;;;;;;4.03;1.80;;;;;;;;;;5032682;28;20033;-59
2023/03/05 01:02:10;;;;;;;2.90;1.80;;;;;;;;;;5031994;28;20029;-60
2023/03/05 01:04:36;;;;;;;2.97;1.48;;;;;;;;;;5039397;28;20031;-59
2023/03/05 01:07:03;;;;;;;2.22;1.30;;;;;;;;;;5052965;28;20037;-59
2023/03/05 01:09:29;;;;;;;4.38;1.90;;;;;;;;;;5038265;28;20029;-58
2023/03/05 01:11:55;;;;;;;2.85;1.58;;;;;;;;;;5033234;28;20120;-59
2023/03/05 01:14:21;;;;;;;7.68;1.80;;;;;;;;;;5032658;28;20029;-59
2023/03/05 01:16:47;;;;;;;3.25;1.58;;;;;;;;;;5032536;28;20047;-59
2023/03/05 01:19:14;;;;;;;3.47;1.40;;;;;;;;;;5032467;28;20097;-59
2023/03/05 01:21:41;;;;;;;2.55;1.45;;;;;;;;;;5046250;28;20107;-57
2023/03/05 01:24:07;;;;;;;3.80;1.60;;;;;;;;;;5052290;28;20116;-59
2023/03/05 01:26:33;;;;;;;2.63;1.50;;;;;;;;;;5051041;28;20053;-58
2023/03/05 01:28:59;;;;;;;3.17;1.60;;;;;;;;;;5052232;28;20025;-59
2023/03/05 01:31:25;;;;;;;4.68;1.88;;;;;;;;;;5052785;28;20025;-58
2023/03/05 01:33:52;;;;;;;4.05;1.45;;;;;;;;;;5051746;28;20021;-59
2023/03/05 01:36:18;;;;;;;4.40;1.50;;;;;;;;;;5035778;28;20044;-59
2023/03/05 01:38:45;;;;;;;3.10;1.50;;;;;;;;;;5052013;28;20029;-59
2023/03/05 01:41:11;;;;;;;4.72;1.33;;;;;;;;;;5043396;28;20021;-58
2023/03/05 01:43:38;;;;;;;3.40;1.65;;;;;;;;;;5031613;28;20037;-59
2023/03/05 01:46:22;;;;;;;3.20;1.35;;;;;;;;;;5031613;28;20033;-59
2023/03/05 01:48:52;;;;;;;3.10;1.50;;;;;;;;;;5031486;28;20064;-59
2023/03/05 01:51:18;;;;;;;3.33;1.50;;;;;;;;;;5031730;28;20038;-59
2023/03/05 01:53:44;;;;;;;2.78;1.40;;;;;;;;;;5031628;28;20031;-59
2023/03/05 01:56:10;;;;;;;2.20;1.20;;;;;;;;;;5031744;28;20025;-59
2023/03/05 01:58:38;;;;;;;2.30;1.45;;;;;;;;;;5031268;28;20071;-59
2023/03/05 02:01:04;;;;;;;2.25;1.20;;;;;;;;;;5031227;28;20056;-59
2023/03/05 02:03:31;;;;;;;3.08;1.25;;;;;;;;;;5031171;28;20496;-58
2023/03/05 02:05:57;;;;;;;2.65;1.30;;;;;;;;;;5048542;28;20112;-59
2023/03/05 02:08:23;;;;;;;2.38;1.15;;;;;;;;;;5048198;28;20060;-58
2023/03/05 02:10:57;;;;;;;3.03;1.20;;;;;;;;;;5031339;28;20037;-57
2023/03/05 02:13:24;;;;;;;2.85;1.40;;;;;;;;;;5031727;28;20393;-59
2023/03/05 02:15:52;;;;;;;3.67;1.30;;;;;;;;;;5031423;28;20013;-59
2023/03/05 02:18:19;;;;;;;2.03;1.30;;;;;;;;;;5031718;28;20341;-59
2023/03/05 02:21:05;;;;;;;3.22;1.20;;;;;;;;;;5036162;28;20014;-59
2023/03/05 02:23:32;;;;;;;3.33;1.35;;;;;;;;;;5050594;28;20103;-60
2023/03/05 02:25:58;;;;;;;3.22;1.40;;;;;;;;;;5050911;28;20048;-59
2023/03/05 02:28:42;;;;;;;2.97;1.42;;;;;;;;;;5051781;28;20094;-59
2023/03/05 02:31:21;;;;;;;2.63;0.88;;;;;;;;;;5051374;28;20111;-58
2023/03/05 02:33:48;;;;;;;2.63;1.30;;;;;;;;;;5051134;28;20033;-58
2023/03/05 02:36:14;;;;;;;2.30;1.23;;;;;;;;;;5051182;28;20079;-58
2023/03/05 02:38:41;;;;;;;2.22;1.00;;;;;;;;;;5050606;28;20060;-58
2023/03/05 02:41:07;;;;;;;3.58;1.20;;;;;;;;;;5048516;28;20393;-59
2023/03/05 02:43:33;;;;;;;2.92;1.20;;;;;;;;;;5029452;28;20393;-58
2023/03/05 02:45:59;;;;;;;2.75;1.30;;;;;;;;;;5030875;28;20030;-60
2023/03/05 02:48:25;;;;;;;2.85;1.10;;;;;;;;;;5031080;28;20029;-59
2023/03/05 02:50:51;;;;;;;1.88;1.10;;;;;;;;;;5030311;28;20025;-60
2023/03/05 02:53:17;;;;;;;3.67;1.20;;;;;;;;;;5031085;28;20025;-60
2023/03/05 02:55:45;;;;;;;2.90;1.20;;;;;;;;;;5030522;28;20040;-60
2023/03/05 02:58:11;;;;;;;2.60;1.15;;;;;;;;;;5030597;28;20071;-58
2023/03/05 03:00:37;;;;;;;2.13;1.40;;;;;;;;;;5030455;28;20541;-61
2023/03/05 03:03:03;;;;;;;4.18;1.40;;;;;;;;;;5030254;28;20025;-58
2023/03/05 03:05:29;;;;;;;3.70;1.33;;;;;;;;;;5030121;28;20405;-61
2023/03/05 03:07:55;;;;;;;2.28;1.55;;;;;;;;;;5030783;28;20083;-60
2023/03/05 03:10:21;;;;;;;2.78;1.38;;;;;;;;;;5050496;28;20033;-61
2023/03/05 03:12:47;;;;;;;3.05;1.30;;;;;;;;;;5043972;28;20097;-60
2023/03/05 03:15:14;;;;;;;2.42;1.20;;;;;;;;;;5030859;28;20064;-60
2023/03/05 03:17:40;;;;;;;3.13;1.27;;;;;;;;;;5030658;28;20029;-60
2023/03/05 03:20:08;;;;;;;1.48;1.05;;;;;;;;;;5030809;28;20091;-60
2023/03/05 03:22:34;;;;;;;2.13;1.20;;;;;;;;;;5030695;28;20018;-60
2023/03/05 03:25:01;;;;;;;1.75;1.08;;;;;;;;;;5037428;28;20508;-60
2023/03/05 03:27:27;;;;;;;2.97;1.40;;;;;;;;;;5050979;28;20358;-60
2023/03/05 03:29:53;;;;;;;2.17;1.08;;;;;;;;;;5050226;28;20108;-60
2023/03/05 03:32:19;;;;;;;1.80;1.10;;;;;;;;;;5050684;28;20036;-60
2023/03/05 03:34:46;;;;;;;2.13;1.00;;;;;;;;;;5050065;28;20488;-60
2023/03/05 03:37:13;;;;;;;2.05;1.25;;;;;;;;;;5050274;28;20017;-60
2023/03/05 03:39:39;;;;;;;1.90;1.05;;;;;;;;;;5050215;28;20036;-60
2023/03/05 03:42:05;;;;;;;2.60;1.08;;;;;;;;;;5050481;28;20017;-61
2023/03/05 03:44:31;;;;;;;2.20;1.38;;;;;;;;;;5036977;28;20064;-60
2023/03/05 03:46:57;;;;;;;2.00;1.05;;;;;;;;;;5030715;28;20029;-60
2023/03/05 03:49:25;;;;;;;2.47;1.15;;;;;;;;;;5031626;28;20033;-60
2023/03/05 03:51:53;;;;;;;2.88;1.33;;;;;;;;;;5033618;28;20053;-60
2023/03/05 03:54:19;;;;;;;2.80;1.30;;;;;;;;;;5034017;28;20501;-60
2023/03/05 03:56:45;;;;;;;3.38;1.10;;;;;;;;;;5033689;28;20033;-61
2023/03/05 03:59:11;;;;;;;2.60;1.10;;;;;;;;;;5033893;28;20083;-60
2023/03/05 04:01:37;;;;;;;1.85;1.27;;;;;;;;;;5033388;28;20033;-60
2023/03/05 04:04:04;;;;;;;1.98;1.13;;;;;;;;;;5032943;28;20028;-60
2023/03/05 04:06:30;;;;;;;2.42;1.30;;;;;;;;;;5033724;28;20037;-60
2023/03/05 04:08:56;;;;;;;2.22;1.20;;;;;;;;;;5033761;28;20128;-61
2023/03/05 04:11:22;;;;;;;3.38;1.23;;;;;;;;;;5045431;28;20021;-60
2023/03/05 04:13:49;;;;;;;1.20;0.98;;;;;;;;;;5050953;28;20493;-60
2023/03/05 04:16:15;;;;;;;3.47;1.40;;;;;;;;;;5033801;28;20025;-60
2023/03/05 04:18:42;;;;;;;2.28;1.25;;;;;;;;;;5033653;28;20125;-60
2023/03/05 04:21:09;;;;;;;2.03;1.00;;;;;;;;;;5033640;28;20025;-60
2023/03/05 04:23:35;;;;;;;3.42;1.25;;;;;;;;;;5033679;28;20103;-60
2023/03/05 04:26:01;;;;;;;2.33;1.13;;;;;;;;;;5027514;28;20041;-60
2023/03/05 04:28:27;;;;;;;1.67;1.10;;;;;;;;;;5025547;28;20052;-60
2023/03/05 04:30:53;;;;;;;2.15;1.23;;;;;;;;;;5033512;28;20151;-60
2023/03/05 04:33:19;;;;;;;4.03;1.65;;;;;;;;;;5033077;28;20457;-60
2023/03/05 04:35:45;;;;;;;1.90;1.15;;;;;;;;;;5033134;28;20030;-60
2023/03/05 04:38:11;;;;;;;2.25;1.25;;;;;;;;;;5033320;28;20504;-60
2023/03/05 04:40:37;;;;;;;1.25;0.70;;;;;;;;;;5032575;28;20505;-60
2023/03/05 04:43:04;;;;;;;2.53;1.00;;;;;;;;;;5052905;28;20032;-61
2023/03/05 04:45:30;;;;;;;1.40;1.00;;;;;;;;;;5048745;28;20065;-59
2023/03/05 04:47:56;;;;;;;1.55;0.93;;;;;;;;;;5033007;28;20064;-60
2023/03/05 04:50:22;;;;;;;2.80;1.17;;;;;;;;;;5032777;28;20038;-60
2023/03/05 04:52:48;;;;;;;1.35;0.80;;;;;;;;;;5032247;28;20397;-60
2023/03/05 04:55:15;;;;;;;2.10;1.10;;;;;;;;;;5032648;28;20029;-60
2023/03/05 04:57:41;;;;;;;1.92;1.23;;;;;;;;;;5032522;28;20104;-59
2023/03/05 05:00:13;;;;;;;2.25;1.13;;;;;;;;;;5032160;28;20109;-59
2023/03/05 05:02:40;;;;;;;1.92;1.00;;;;;;;;;;5032592;28;20025;-59
2023/03/05 05:05:07;;;;;;;1.60;0.90;;;;;;;;;;5032762;28;20069;-59
2023/03/05 05:07:33;;;;;;;1.35;0.90;;;;;;;;;;5032383;28;20025;-59
2023/03/05 05:09:59;;;;;;;1.80;1.05;;;;;;;;;;5032624;28;20041;-58
2023/03/05 05:12:28;;;;;;;1.67;0.93;;;;;;;;;;5032553;28;20025;-59
2023/03/05 05:14:54;;;;;;;2.25;1.23;;;;;;;;;;5032856;28;20034;-58
2023/03/05 05:17:20;;;;;;;1.48;0.95;;;;;;;;;;5032597;28;20033;-58
2023/03/05 05:19:46;;;;;;;2.03;1.02;;;;;;;;;;5032258;28;20120;-58
2023/03/05 05:22:12;;;;;;;1.73;0.98;;;;;;;;;;5032260;28;20021;-58
2023/03/05 05:24:37;;;;;;;4.28;1.40;;;;;;;;;;5032069;28;20104;-59
2023/03/05 05:27:03;;;;;;;2.67;1.17;;;;;;;;;;5032253;28;20030;-58
2023/03/05 05:29:29;;;;;;;1.83;1.00;;;;;;;;;;5032259;28;20057;-59
2023/03/05 05:31:55;;;;;;;1.95;1.00;;;;;;;;;;5032444;28;20044;-59
2023/03/05 05:34:23;;;;;;;1.67;1.13;;;;;;;;;;5032113;28;20029;-59
2023/03/05 05:36:49;;;;;;;1.98;1.00;;;;;;;;;;5031656;28;20032;-59
2023/03/05 05:39:15;;;;;;;2.03;1.10;;;;;;;;;;5032443;28;20026;-59
2023/03/05 05:41:41;;;;;;;1.95;0.93;;;;;;;;;;5030496;28;20405;-59
2023/03/05 05:44:07;;;;;;;2.08;1.00;;;;;;;;;;5031970;28;20032;-59
2023/03/05 05:46:33;;;;;;;2.00;1.20;;;;;;;;;;5031859;28;20026;-59
2023/03/05 05:48:59;;;;;;;2.05;1.25;;;;;;;;;;5032391;28;20026;-59
2023/03/05 05:51:25;;;;;;;2.70;1.38;;;;;;;;;;5031602;28;20035;-59
2023/03/05 05:53:51;;;;;;;1.92;1.25;;;;;;;;;;5032063;28;20029;-58
2023/03/05 05:56:18;;;;;;;2.47;1.33;;;;;;;;;;5031704;28;20036;-59
2023/03/05 05:58:46;;;;;;;2.38;1.38;;;;;;;;;;5031448;28;20021;-59
2023/03/05 06:01:23;;;;;;;2.33;1.13;;;;;;;;;;5031599;28;20442;-58
2023/03/05 06:03:49;;;;;;;2.22;1.30;;;;;;;;;;5031468;28;20026;-59
2023/03/05 06:06:16;;;;;;;3.35;1.40;;;;;;;;;;5031385;28;20095;-59
2023/03/05 06:08:42;;;;;;;2.10;1.38;;;;;;;;;;5031507;28;20029;-59
2023/03/05 06:11:08;;;;;;;2.88;1.67;;;;;;;;;;5031527;28;20025;-59
2023/03/05 06:13:34;;;;;;;2.83;1.60;;;;;;;;;;5030291;28;20493;-58
2023/03/05 06:16:05;;;;;;;2.95;1.75;;;;;;;;;;5045438;28;20071;-59
2023/03/05 06:18:31;;;;;;;3.47;1.88;;;;;;;;;;5050537;28;20025;-59
2023/03/05 06:20:57;;;;;;;1.92;1.17;;;;;;;;;;5031450;28;20026;-59
2023/03/05 06:23:24;;;;;;;1.63;1.00;;;;;;;;;;5031379;28;20075;-59
2023/03/05 06:25:50;;;;;;;1.88;1.38;;;;;;;;;;5031653;28;20033;-59
2023/03/05 06:28:17;;;;;;;2.75;1.45;;;;;;;;;;5031951;28;20445;-59
2023/03/05 06:30:43;;;;;;;2.85;1.50;;;;;;;;;;5032634;28;20382;-59
2023/03/05 06:33:09;;;;;;;2.50;1.27;;;;;;;;;;5051590;28;20448;-59
2023/03/05 06:35:38;;;;;;;1.98;1.35;;;;;;;;;;5051111;28;20398;-59
2023/03/05 06:38:04;;;;;;;2.70;1.55;;;;;;;;;;5051068;28;20033;-59
2023/03/05 06:40:30;;;;;;;2.42;1.40;;;;;;;;;;5050024;28;20400;-59
2023/03/05 06:42:56;;;;;;;2.75;1.52;;;;;;;;;;5051102;28;20408;-58
2023/03/05 06:45:22;;;;;;;2.85;1.30;;;;;;;;;;5050997;28;20037;-59
2023/03/05 06:47:48;;;;;;;2.63;1.08;;;;;;;;;;5050820;28;20021;-59
2023/03/05 06:50:14;;;;;;;2.28;1.50;;;;;;;;;;5045066;28;20018;-59
2023/03/05 06:52:40;;;;;;;3.03;1.50;;;;;;;;;;5030642;28;20064;-59
2023/03/05 06:55:07;;;;;;;2.15;1.50;;;;;;;;;;5030970;28;20148;-59
2023/03/05 06:57:33;;;;;;;2.30;1.30;;;;;;;;;;5029547;28;20437;-59
2023/03/05 06:59:59;;;;;;;1.75;1.30;;;;;;;;;;5031173;28;20033;-59
2023/03/05 07:02:25;;;;;;;2.60;1.40;;;;;;;;;;5030522;28;20029;-59
2023/03/05 07:04:51;;;;;;;2.30;1.38;;;;;;;;;;5030218;28;20028;-59
2023/03/05 07:07:17;;;;;;;2.45;1.30;;;;;;;;;;5030888;28;20482;-59
2023/03/05 07:09:44;;;;;;;2.58;1.45;;;;;;;;;;5030376;28;20430;-59
2023/03/05 07:12:10;;;;;;;2.00;1.10;;;;;;;;;;5030500;28;20029;-59
2023/03/05 07:14:37;;;;;;;2.50;1.55;;;;;;;;;;5030289;28;20033;-58
2023/03/05 07:17:05;;;;;;;1.77;1.17;;;;;;;;;;5048260;28;20104;-59
2023/03/05 07:19:31;;;;;;;2.63;1.30;;;;;;;;;;5046883;28;20021;-59
2023/03/05 07:21:57;;;;;;;2.00;1.20;;;;;;;;;;5031035;28;20041;-58
2023/03/05 07:24:28;;;;;;;2.22;1.10;;;;;;;;;;5033508;28;20021;-58
2023/03/05 07:26:54;;;;;;;2.45;1.33;;;;;;;;;;5035003;28;20022;-58
2023/03/05 07:29:20;;;;;;;1.73;1.00;;;;;;;;;;5034769;28;20033;-58
2023/03/05 07:31:46;;;;;;;1.85;1.00;;;;;;;;;;5039226;28;20511;-58
2023/03/05 07:34:12;;;;;;;2.00;1.10;;;;;;;;;;5054593;28;20130;-58
2023/03/05 07:36:39;;;;;;;1.85;1.10;;;;;;;;;;5054494;28;20401;-60
2023/03/05 07:39:05;;;;;;;2.58;1.17;;;;;;;;;;5055173;28;20032;-60
2023/03/05 07:41:31;;;;;;;1.73;1.08;;;;;;;;;;5054856;28;20025;-60
2023/03/05 07:43:57;;;;;;;2.35;1.02;;;;;;;;;;5054287;28;20083;-60
2023/03/05 07:46:25;;;;;;;1.50;1.10;;;;;;;;;;5054664;28;20477;-61
2023/03/05 07:48:53;;;;;;;1.95;1.35;;;;;;;;;;5036539;28;20071;-61
2023/03/05 07:51:19;;;;;;;2.60;1.13;;;;;;;;;;5034711;28;20057;-61
2023/03/05 07:53:46;;;;;;;1.33;1.00;;;;;;;;;;5033759;28;20033;-60
2023/03/05 07:56:13;;;;;;;1.88;0.95;;;;;;;;;;5034081;28;20112;-60
2023/03/05 07:58:39;;;;;;;3.58;0.82;;;;;;;;;;5033918;28;20029;-60
2023/03/05 08:01:11;;;;;;;1.77;1.00;;;;;;;;;;5033993;28;20112;-60
2023/03/05 08:03:38;;;;;;;3.03;1.30;;;;;;;;;;5033724;28;20037;-60
2023/03/05 08:06:05;;;;;;;1.70;0.80;;;;;;;;;;5034554;28;20030;-60
2023/03/05 08:08:31;;;;;;;1.95;0.95;;;;;;;;;;5033654;28;20043;-61
2023/03/05 08:11:02;;;;;;;1.95;1.00;;;;;;;;;;5034058;28;20030;-60
2023/03/05 08:13:28;;;;;;;2.47;0.90;;;;;;;;;;5032389;28;20030;-60
2023/03/05 08:15:54;;;;;;;2.17;0.88;;;;;;;;;;5033979;28;20032;-59
2023/03/05 08:18:20;;;;;;;2.92;0.98;;;;;;;;;;5035840;28;20040;-57
2023/03/05 08:20:46;;;;;;;1.90;0.80;;;;;;;;;;5053703;28;20029;-58
2023/03/05 08:23:12;;;;;;;2.10;0.98;;;;;;;;;;5040469;28;20037;-60
2023/03/05 08:25:38;;;;;;;4.68;0.90;;;;;;;;;;5033714;28;20501;-62
2023/03/05 08:28:04;;;;;;;3.47;1.20;;;;;;;;;;5033314;28;20033;-60
2023/03/05 08:30:30;;;;;;;2.70;1.40;;;;;;;;;;5032730;28;20210;-60
2023/03/05 08:32:56;;;;;;;6.90;1.00;;;;;;;;;;5033524;28;20030;-60
2023/03/05 08:35:22;;;;;;;4.82;1.08;;;;;;;;;;5033091;28;20033;-59
2023/03/05 08:37:48;;;;;;;3.38;1.02;;;;;;;;;;5032890;28;20033;-60
2023/03/05 08:40:16;;;;;;;6.57;1.20;;;;;;;;;;5033237;28;20454;-60
2023/03/05 08:42:43;;;;;;;3.70;1.05;;;;;;;;;;5033142;28;20082;-61
2023/03/05 08:45:09;;;;;;;2.67;1.08;;;;;;;;;;5032887;28;20044;-61
2023/03/05 08:47:35;;;;;;;2.40;1.00;;;;;;;;;;5033186;28;20036;-58
2023/03/05 08:50:01;;;;;;;2.35;1.10;;;;;;;;;;5033077;28;20032;-59
2023/03/05 08:52:27;;;;;;;3.58;1.63;;;;;;;;;;5035157;28;20033;-58
2023/03/05 08:54:53;;;;;;;4.40;1.40;;;;;;;;;;5053155;28;20021;-58
2023/03/05 08:57:19;;;;;;;4.13;1.60;;;;;;;;;;5051141;28;20116;-59
2023/03/05 08:59:45;;;;;;;2.92;1.45;;;;;;;;;;5032333;28;20429;-59
2023/03/05 09:02:14;;;;;;;3.00;1.70;;;;;;;;;;5032235;28;20037;-59
2023/03/05 09:04:40;;;;;;;3.90;1.42;;;;;;;;;;5016924;28;20473;-58
2023/03/05 09:07:06;;;;;;;3.72;1.63;;;;;;;;;;5033192;28;20033;-59
2023/03/05 09:09:32;;;;;;;3.50;1.60;;;;;;;;;;5032376;28;20432;-59
2023/03/05 09:11:59;;;;;;;4.13;1.95;;;;;;;;;;5032145;28;20481;-58
2023/03/05 09:14:27;;;;;;;3.55;1.65;;;;;;;;;;5042740;28;20025;-58
2023/03/05 09:16:53;;;;;;;6.55;1.60;;;;;;;;;;5038993;28;20044;-56
2023/03/05 09:19:19;;;;;;;4.43;1.45;;;;;;;;;;5032302;28;20092;-59
2023/03/05 09:21:45;;;;;;;5.07;1.55;;;;;;;;;;5051413;28;20139;-59
2023/03/05 09:24:11;;;;;;;4.05;1.17;;;;;;;;;;5046644;28;20025;-59
2023/03/05 09:26:37;;;;;;;2.90;1.33;;;;;;;;;;5031221;28;20026;-58
2023/03/05 09:29:06;;;;;;;4.00;1.42;;;;;;;;;;5032219;28;20508;-60
2023/03/05 09:31:32;;;;;;;3.15;1.35;;;;;;;;;;5032011;28;20029;-60
2023/03/05 09:33:58;;;;;;;4.85;1.70;;;;;;;;;;5032132;28;20083;-60
2023/03/05 09:36:26;;;;;;;5.47;1.60;;;;;;;;;;5032615;28;20030;-59
2023/03/05 09:38:52;;;;;;;4.03;1.33;;;;;;;;;;5032475;28;20025;-59
2023/03/05 09:41:30;;;;;;;4.18;1.05;;;;;;;;;;5032378;28;20434;-58
2023/03/05 09:43:56;;;;;;;10.90;1.23;;;;;;;;;;5032344;28;20025;-58
2023/03/05 09:46:28;;;;;;;2.92;1.10;;;;;;;;;;5031722;28;20041;-59
2023/03/05 09:49:00;;;;;;;4.78;1.40;;;;;;;;;;5031416;28;20091;-58
2023/03/05 09:51:31;;;;;;;4.47;1.45;;;;;;;;;;5031993;28;20115;-58
2023/03/05 09:54:02;;;;;;;7.85;1.42;;;;;;;;;;5032155;28;20021;-59
2023/03/05 09:56:34;;;;;;;1.98;0.85;;;;;;;;;;5031906;28;20535;-59
2023/03/05 09:59:16;;;;;;;3.45;1.10;;;;;;;;;;5031688;28;20029;-59
2023/03/05 10:01:44;;;;;;;5.97;0.95;;;;;;;;;;5031632;28;20021;-58
2023/03/05 10:04:13;;;;;;;4.93;1.33;;;;;;;;;;5031408;28;20060;-59
2023/03/05 10:06:41;;;;;;;4.00;1.00;;;;;;;;;;5043688;28;20044;-58
2023/03/05 10:09:10;;;;;;;6.00;1.20;;;;;;;;;;5051915;28;20059;-59
2023/03/05 10:11:40;;;;;;;1.88;0.98;;;;;;;;;;5031921;28;20113;-59
2023/03/05 10:14:06;;;;;;;3.13;1.10;;;;;;;;;;5031803;28;20112;-59
2023/03/05 10:16:47;;;;;;;5.70;1.40;;;;;;;;;;5031008;28;20065;-58
2023/03/05 10:19:33;;;;;;;3.10;1.20;;;;;;;;;;5045892;28;20036;-60
2023/03/05 10:22:12;;;;;;;6.55;0.85;;;;;;;;;;5031372;28;20021;-58
2023/03/05 10:24:44;;;;;;;3.67;1.20;;;;;;;;;;5031696;28;20029;-60
2023/03/05 10:27:16;;;;;;;2.83;1.23;;;;;;;;;;5031829;28;20663;-60
2023/03/05 10:29:57;;;;;;;4.95;1.00;;;;;;;;;;5030777;28;20076;-60
2023/03/05 10:32:23;;;;;;;5.55;1.40;;;;;;;;;;5031452;28;20029;-60
2023/03/05 10:34:49;;;;;;;3.50;1.20;;;;;;;;;;5031312;28;20373;-60
2023/03/05 10:37:33;;;;;;;4.18;1.08;;;;;;;;;;5031618;28;20454;-60
2023/03/05 10:40:12;;;;;;;3.30;0.70;;;;;;;;;;5029987;28;20424;-59
2023/03/05 10:42:56;;;;;;;5.10;1.05;;;;;;;;;;5030758;28;20048;-60
2023/03/05 10:45:35;;;;;;;5.75;0.90;;;;;;;;;;5031301;28;20043;-60
2023/03/05 10:48:04;;;;;;;7.10;1.00;;;;;;;;;;5031327;28;20028;-60
2023/03/05 10:50:35;;;;;;;5.30;1.23;;;;;;;;;;5027456;28;20037;-60
2023/03/05 10:53:10;;;;;;;2.33;0.90;;;;;;;;;;5042908;28;20017;-59
2023/03/05 10:55:36;;;;;;;4.07;0.80;;;;;;;;;;5050739;28;20397;-60
2023/03/05 10:58:09;;;;;;;2.75;0.98;;;;;;;;;;5050820;28;20021;-60
2023/03/05 11:00:35;;;;;;;4.03;0.80;;;;;;;;;;5038050;28;20033;-61
2023/03/05 11:03:03;;;;;;;3.50;1.23;;;;;;;;;;5032298;28;20097;-60
2023/03/05 11:05:38;;;;;;;7.03;1.00;;;;;;;;;;5049385;28;20041;-61
2023/03/05 11:08:24;;;;;;;9.35;1.15;;;;;;;;;;5020551;28;20034;-60
2023/03/05 11:11:09;;;;;;;5.57;1.52;;;;;;;;;;5032782;28;20580;-59
2023/03/05 11:13:46;;;;;;;8.20;1.00;;;;;;;;;;5027153;28;20033;-61
2023/03/05 11:16:16;;;;;;;2.83;1.33;;;;;;;;;;5028367;28;20044;-58
2023/03/05 11:18:45;;;;;;;5.25;0.90;;;;;;;;;;5029755;28;20406;-64
2023/03/05 11:21:18;;;;;;;2.47;1.13;;;;;;;;;;5031159;28;20033;-64
2023/03/05 11:23:44;;;;;;;7.35;1.80;;;;;;;;;;5030797;28;20091;-64
2023/03/05 11:26:13;;;;;;;6.18;0.80;;;;;;;;;;5031158;28;20417;-64
2023/03/05 11:28:41;;;;;;;7.40;0.95;;;;;;;;;;5029824;28;20508;-64
2023/03/05 11:31:16;;;;;;;5.63;1.27;;;;;;;;;;5030213;28;20112;-64
2023/03/05 11:33:54;;;;;;;4.30;1.00;;;;;;;;;;5028437;28;20413;-65
2023/03/05 11:36:23;;;;;;;3.05;1.13;;;;;;;;;;5043815;28;20056;-64
2023/03/05 11:38:56;;;;;;;3.33;1.00;;;;;;;;;;5038405;28;20021;-63
2023/03/05 11:41:42;;;;;;;2.42;0.77;;;;;;;;;;5033984;28;20025;-65
2023/03/05 11:44:13;;;;;;;5.95;1.45;;;;;;;;;;5045956;28;20033;-65
2023/03/05 11:46:42;;;;;;;5.85;1.55;;;;;;;;;;5037858;28;20039;-64
2023/03/05 11:49:11;;;;;;;4.03;1.10;;;;;;;;;;5035145;28;20025;-64
2023/03/05 11:51:43;;;;;;;2.95;1.00;;;;;;;;;;5039923;28;20033;-64
2023/03/05 11:54:13;;;;;;;2.67;1.30;;;;;;;;;;5040258;28;20028;-65
2023/03/05 11:56:41;;;;;;;2.90;1.10;;;;;;;;;;5036062;28;20048;-65
2023/03/05 11:59:28;;;;;;;5.00;1.50;;;;;;;;;;5041271;28;20028;-66
2023/03/05 12:01:55;;;;;;;5.60;2.15;;;;;;;;;;5033861;28;20036;-65
2023/03/05 12:04:21;;;;;;;5.35;1.70;;;;;;;;;;5039632;28;20061;-64
2023/03/05 12:06:52;;;;;;;5.07;2.45;;;;;;;;;;5041660;28;20036;-64
2023/03/05 12:09:33;;;;;;;4.35;2.30;;;;;;;;;;5046200;28;20036;-64
2023/03/05 12:12:18;;;;;;;6.47;2.55;;;;;;;;;;5044048;28;20013;-64
2023/03/05 12:14:55;;;;;;;5.72;3.25;;;;;;;;;;5045224;28;20059;-65
2023/03/05 12:17:27;;;;;;;4.20;2.67;;;;;;;;;;5047426;28;20029;-64
2023/03/05 12:20:05;;;;;;;5.45;2.50;;;;;;;;;;5041649;28;20032;-64
2023/03/05 12:22:35;;;;;;;8.45;2.83;;;;;;;;;;5045157;28;20021;-64
2023/03/05 12:25:20;;;;;;;5.43;2.72;;;;;;;;;;5047500;28;20112;-64
2023/03/05 12:27:47;;;;;;;5.53;2.83;;;;;;;;;;5049671;28;20034;-65
2023/03/05 12:30:31;;;;;;;7.13;3.28;;;;;;;;;;5045319;28;20052;-65
2023/03/05 12:32:57;;;;;;;4.82;2.60;;;;;;;;;;5046691;28;20053;-64
2023/03/05 12:35:25;;;;;;;8.27;3.03;;;;;;;;;;5040227;28;20025;-65
2023/03/05 12:37:51;;;;;;;3.92;2.72;;;;;;;;;;5049155;28;20079;-64
2023/03/05 12:40:19;;;;;;;4.82;2.53;;;;;;;;;;5041717;28;20033;-64
2023/03/05 12:42:51;;;;;;;5.53;2.67;;;;;;;;;;5036878;28;20025;-65
2023/03/05 12:45:18;;;;;;;5.95;2.60;;;;;;;;;;5050059;28;20475;-64
2023/03/05 12:47:56;;;;;;;6.28;2.53;;;;;;;;;;5043308;28;20037;-65
2023/03/05 12:50:28;;;;;;;4.55;2.55;;;;;;;;;;5047102;28;20173;-64
2023/03/05 12:52:57;;;;;;;4.38;2.25;;;;;;;;;;5041091;28;20072;-64
2023/03/05 12:55:27;;;;;;;2.95;2.10;;;;;;;;;;5042604;28;20039;-64
2023/03/05 12:57:59;;;;;;;5.38;2.47;;;;;;;;;;5033054;28;20494;-64
2023/03/05 13:00:32;;;;;;;5.00;2.53;;;;;;;;;;5043816;28;20446;-64
2023/03/05 13:03:00;;;;;;;6.72;2.20;;;;;;;;;;5043375;28;20066;-64
2023/03/05 13:05:31;;;;;;;5.32;2.10;;;;;;;;;;5039057;28;20116;-64
2023/03/05 13:08:17;;;;;;;8.68;1.73;;;;;;;;;;5035750;28;20063;-64
2023/03/05 13:10:49;;;;;;;8.77;2.30;;;;;;;;;;5037342;28;20175;-64
2023/03/05 13:13:15;;;;;;;18.08;2.50;;;;;;;;;;5032415;28;20386;-65
2023/03/05 13:15:45;;;;;;;5.03;2.42;;;;;;;;;;5037109;28;20029;-64
2023/03/05 13:18:18;;;;;;;10.43;2.60;;;;;;;;;;5040086;28;20029;-64
2023/03/05 13:20:44;;;;;;;11.45;2.63;;;;;;;;;;5040891;28;20024;-65
2023/03/05 13:23:15;;;;;;;12.23;2.95;;;;;;;;;;5041932;28;20025;-64
2023/03/05 13:25:41;;;;;;;10.52;2.70;;;;;;;;;;5040745;28;20523;-64
2023/03/05 13:28:11;;;;;;;18.85;2.85;;;;;;;;;;5041852;28;20022;-65
2023/03/05 13:30:37;;;;;;;11.82;2.08;;;;;;;;;;5037335;28;20030;-63
2023/03/05 13:33:04;;;;;;;17.48;2.53;;;;;;;;;;5036588;28;20017;-64
2023/03/05 13:35:33;;;;;;;13.35;2.50;;;;;;;;;;5033003;28;20079;-64
2023/03/05 13:38:00;;;;;;;7.70;2.10;;;;;;;;;;5043436;28;20017;-64
2023/03/05 13:40:28;;;;;;;10.95;2.30;;;;;;;;;;5051991;28;20033;-64
2023/03/05 13:42:55;;;;;;;14.55;2.92;;;;;;;;;;5052082;28;20024;-63
2023/03/05 13:45:21;;;;;;;10.75;2.38;;;;;;;;;;5041775;28;20047;-63
2023/03/05 13:47:58;;;;;;;11.75;2.30;;;;;;;;;;5044478;28;20381;-65
2023/03/05 13:50:44;;;;;;;12.95;3.20;;;;;;;;;;5043356;28;20029;-65
2023/03/05 13:53:16;;;;;;;7.57;2.13;;;;;;;;;;5012262;28;20594;-65
2023/03/05 13:55:42;;;;;;;12.00;2.22;;;;;;;;;;5010253;28;20029;-64
2023/03/05 13:58:28;;;;;;;11.25;2.00;;;;;;;;;;5010784;28;20030;-65
2023/03/05 14:01:12;;;;;;;22.42;2.47;;;;;;;;;;5028485;28;20029;-64
2023/03/05 14:03:38;;;;;;;27.23;2.25;;;;;;;;;;5049985;28;20492;-66
2023/03/05 14:06:11;;;;;;;10.77;2.47;;;;;;;;;;5049856;28;20063;-64
2023/03/05 14:08:38;;;;;;;21.63;2.28;;;;;;;;;;5049634;28;20025;-67
2023/03/05 14:11:17;;;;;;;10.45;2.28;;;;;;;;;;5039520;28;20481;-65
2023/03/05 14:13:43;;;;;;;21.95;2.17;;;;;;;;;;5029988;28;20025;-65
2023/03/05 14:16:10;;;;;;;14.05;2.05;;;;;;;;;;5029839;28;20526;-65
2023/03/05 14:18:37;;;;;;;15.15;2.35;;;;;;;;;;5032580;28;20036;-65
2023/03/05 14:21:13;;;;;;;16.48;2.67;;;;;;;;;;5033288;28;20049;-65
2023/03/05 14:23:40;;;;;;;23.58;2.03;;;;;;;;;;5033511;28;20108;-62
2023/03/05 14:26:15;;;;;;;15.00;2.25;;;;;;;;;;5046212;28;20494;-63
2023/03/05 14:28:41;;;;;;;15.35;2.08;;;;;;;;;;5047648;28;20393;-63
2023/03/05 14:31:14;;;;;;;15.05;2.20;;;;;;;;;;5051731;28;20029;-63
2023/03/05 14:33:40;;;;;;;17.60;2.40;;;;;;;;;;5031696;28;20553;-62
2023/03/05 14:36:08;;;;;;;15.70;2.60;;;;;;;;;;5035703;28;20035;-64
2023/03/05 14:38:34;;;;;;;12.98;2.17;;;;;;;;;;5032292;28;20083;-62
2023/03/05 14:41:38;;;;;;;8.65;1.88;;;;;;;;;;5033120;28;20565;-62
2023/03/05 14:44:11;;;;;;;10.50;2.25;;;;;;;;;;4997183;28;20026;-62
2023/03/05 14:46:37;;;;;;;13.52;2.38;;;;;;;;;;5009145;28;20034;-64
2023/03/05 14:49:03;;;;;;;13.77;1.65;;;;;;;;;;5015573;28;20038;-63